Time;durP1;ratioP1;P1;durP2;ratioP2;P2;SDS_P1;SDS_P2;PMS_P1;PMS_P2;Temp;Humidity;BMP_temperature;BMP_pressure;BME280_temperature;BME280_humidity;BME280_pressure;Samples;Min_cycle;Max_cycle;Signal;HPM_P1;HPM_P2
2022/04/21 00:01:04;;;;;;;26.33;13.45;;;;;;;8.49;100.00;99158.78;4811296;29;20397;-83
2022/04/21 00:03:30;;;;;;;26.27;12.70;;;;;;;8.77;100.00;99181.75;4825378;29;20054;-84
2022/04/21 00:05:56;;;;;;;28.27;12.23;;;;;;;8.64;100.00;99166.66;4811927;29;20042;-83
2022/04/21 00:08:22;;;;;;;24.40;12.57;;;;;;;8.63;100.00;99157.19;4826671;29;20041;-82
2022/04/21 00:10:56;;;;;;;22.83;13.15;;;;;;;8.82;100.00;99190.69;4826629;29;20545;-85
2022/04/21 00:13:21;;;;;;;25.65;13.23;;;;;;;8.75;100.00;99184.56;4823275;29;20481;-84
2022/04/21 00:15:47;;;;;;;28.05;14.73;;;;;;;8.41;100.00;99139.53;4828302;29;20062;-84
2022/04/21 00:18:13;;;;;;;26.95;12.95;;;;;;;8.39;100.00;99149.34;4820767;29;20030;-85
2022/04/21 00:20:39;;;;;;;32.47;13.90;;;;;;;8.63;100.00;99150.13;4827227;29;20036;-86
2022/04/21 00:25:53;;;;;;;24.60;13.93;;;;;;;8.67;100.00;99179.38;4826976;29;20053;-90
2022/04/21 00:28:28;;;;;;;26.83;13.63;;;;;;;8.35;100.00;99142.88;4817208;29;20108;-90
2022/04/21 00:31:04;;;;;;;27.23;14.10;;;;;;;8.43;100.00;99145.38;4821113;29;20046;-90
2022/04/21 00:33:40;;;;;;;30.95;14.05;;;;;;;8.64;100.00;99180.56;4825012;29;20042;-91
2022/04/21 00:36:18;;;;;;;28.05;14.80;;;;;;;8.29;100.00;99143.59;4825957;29;20046;-90
2022/04/21 00:42:14;;;;;;;31.05;16.83;;;;;;;8.50;100.00;99155.19;4838672;29;20593;-88
2022/04/21 00:44:39;;;;;;;26.77;16.52;;;;;;;8.46;100.00;99159.94;4824874;29;20038;-90
2022/04/21 00:47:07;;;;;;;33.88;17.75;;;;;;;8.29;100.00;99120.03;4821852;29;20110;-89
2022/04/21 00:49:34;;;;;;;31.25;17.67;;;;;;;8.43;100.00;99137.53;4823119;29;20038;-90
2022/04/21 00:52:01;;;;;;;38.67;18.80;;;;;;;8.52;100.00;99158.44;4822930;29;20106;-91
2022/04/21 00:54:32;;;;;;;38.50;19.55;;;;;;;8.36;100.00;99126.19;4824219;29;20565;-90
2022/04/21 00:57:00;;;;;;;33.28;17.60;;;;;;;8.49;100.00;99153.53;4822697;29;20433;-90
2022/04/21 00:59:30;;;;;;;31.50;18.38;;;;;;;8.53;100.00;99160.06;4838477;29;20050;-91
2022/04/21 01:05:01;;;;;;;31.52;17.20;;;;;;;7.99;100.00;99086.81;4833738;29;20046;-89
2022/04/21 01:07:27;;;;;;;32.50;17.92;;;;;;;8.37;100.00;99143.50;4830886;29;20141;-90
2022/04/21 01:09:55;;;;;;;32.80;19.52;;;;;;;7.77;100.00;99067.53;4829278;29;20108;-90
2022/04/21 01:12:23;;;;;;;38.92;19.92;;;;;;;8.02;100.00;99111.75;4828726;29;20052;-90
2022/04/21 01:14:49;;;;;;;43.60;19.95;;;;;;;8.12;100.00;99108.91;4829960;29;20042;-90
2022/04/21 01:17:16;;;;;;;35.35;19.88;;;;;;;8.24;100.00;99124.97;4831484;29;20049;-90
2022/04/21 01:19:41;;;;;;;35.60;19.23;;;;;;;8.17;100.00;99124.88;4843931;29;20026;-90
2022/04/21 01:22:10;;;;;;;28.70;18.73;;;;;;;8.18;100.00;99134.34;4831797;29;20052;-90
2022/04/21 01:24:36;;;;;;;39.63;20.50;;;;;;;7.74;100.00;99067.06;4810610;29;20066;-90
2022/04/21 01:27:02;;;;;;;30.50;19.23;;;;;;;7.60;100.00;99040.72;4799691;29;20034;-90
2022/04/21 01:29:28;;;;;;;36.13;20.52;;;;;;;7.63;100.00;99073.50;4824264;29;20110;-91
2022/04/21 01:31:55;;;;;;;35.58;19.73;;;;;;;8.01;100.00;99125.81;4818514;29;20046;-88
2022/04/21 01:34:21;;;;;;;37.10;20.48;;;;;;;7.47;100.00;99025.66;4826049;29;20049;-90
2022/04/21 01:42:16;;;;;;;34.78;21.02;;;;;;;8.02;100.00;99132.66;4842322;29;20018;-90
2022/04/21 01:44:43;;;;;;;36.25;21.40;;;;;;;7.87;100.00;99135.25;4828053;29;20058;-90
2022/04/21 01:47:09;;;;;;;34.03;20.10;;;;;;;7.79;100.00;99101.34;4827313;29;20037;-89
2022/04/21 01:49:35;;;;;;;37.22;20.38;;;;;;;7.83;100.00;99111.25;4823650;29;20041;-90
2022/04/21 01:52:01;;;;;;;33.38;20.13;;;;;;;8.06;100.00;99138.38;4827452;29;20046;-90
2022/04/21 01:54:27;;;;;;;36.40;21.92;;;;;;;7.79;100.00;99091.69;4829720;29;20133;-89
2022/04/21 01:56:53;;;;;;;38.97;20.95;;;;;;;8.07;100.00;99134.75;4827980;29;20394;-90
2022/04/21 01:59:19;;;;;;;45.50;23.23;;;;;;;7.80;100.00;99114.22;4827116;29;20026;-90
2022/04/21 02:01:45;;;;;;;38.35;21.27;;;;;;;7.53;100.00;99071.94;4821953;29;20149;-89
2022/04/21 02:04:11;;;;;;;39.55;22.25;;;;;;;7.71;100.00;99094.38;4835249;29;20060;-89
2022/04/21 02:06:39;;;;;;;34.50;22.05;;;;;;;7.81;100.00;99102.78;4839159;29;20136;-89
2022/04/21 02:09:04;;;;;;;36.03;20.70;;;;;;;8.02;100.00;99121.41;4826861;29;20137;-89
2022/04/21 02:11:30;;;;;;;40.25;22.63;;;;;;;7.66;100.00;99086.22;4817207;29;20058;-89
2022/04/21 02:13:56;;;;;;;42.88;22.35;;;;;;;7.66;100.00;99096.66;4825953;29;20075;-89
2022/04/21 02:16:21;;;;;;;41.83;22.73;;;;;;;7.67;100.00;99082.66;4824114;29;20027;-89
2022/04/21 02:18:48;;;;;;;41.17;22.75;;;;;;;7.73;100.00;99087.16;4815336;29;20048;-90
2022/04/21 02:21:14;;;;;;;39.55;22.30;;;;;;;7.74;100.00;99108.88;4820635;29;20041;-90
2022/04/21 02:23:40;;;;;;;38.63;22.27;;;;;;;7.26;100.00;99052.38;4821462;29;20047;-89
2022/04/21 02:26:05;;;;;;;44.60;23.25;;;;;;;7.49;100.00;99068.06;4820217;29;20037;-88
2022/04/21 02:28:31;;;;;;;36.90;21.65;;;;;;;7.50;100.00;99093.19;4840152;29;20042;-90
2022/04/21 02:30:57;;;;;;;39.60;22.50;;;;;;;7.54;100.00;99072.75;4822690;29;20042;-89
2022/04/21 02:33:23;;;;;;;39.10;22.63;;;;;;;7.53;100.00;99087.63;4820922;29;20037;-89
2022/04/21 02:35:48;;;;;;;36.97;22.60;;;;;;;7.49;100.00;99083.75;4820387;29;20030;-89
2022/04/21 02:38:14;;;;;;;38.70;21.75;;;;;;;7.53;100.00;99089.41;4835257;29;20041;-89
2022/04/21 02:40:40;;;;;;;41.83;21.67;;;;;;;7.47;100.00;99077.88;4822631;29;20034;-89
2022/04/21 02:43:06;;;;;;;33.90;20.60;;;;;;;7.63;100.00;99068.28;4821315;29;20041;-89
2022/04/21 02:45:32;;;;;;;36.85;21.73;;;;;;;7.38;100.00;99076.28;4825133;29;20179;-90
2022/04/21 02:47:58;;;;;;;45.70;22.55;;;;;;;7.60;100.00;99099.97;4838317;29;20129;-90
2022/04/21 02:50:24;;;;;;;37.15;21.55;;;;;;;7.40;100.00;99067.31;4838021;29;20041;-89
2022/04/21 02:52:51;;;;;;;40.33;22.40;;;;;;;7.66;100.00;99096.66;4837040;29;20034;-89
2022/04/21 02:58:02;;;;;;;35.83;20.90;;;;;;;7.43;100.00;99081.78;4840569;29;20091;-90
2022/04/21 03:00:28;;;;;;;39.53;23.02;;;;;;;7.34;100.00;99072.41;4824939;29;20038;-89
2022/04/21 03:02:56;;;;;;;35.80;21.38;;;;;;;7.50;100.00;99093.19;4827655;29;20062;-89
2022/04/21 03:05:22;;;;;;;40.25;22.05;;;;;;;7.05;100.00;99037.31;4822006;29;20038;-90
2022/04/21 03:07:48;;;;;;;38.53;23.35;;;;;;;7.13;100.00;99048.50;4838742;29;20034;-90
2022/04/21 03:10:13;;;;;;;37.38;23.65;;;;;;;7.29;100.00;99096.41;4821017;29;20064;-89
2022/04/21 03:12:39;;;;;;;39.45;24.15;;;;;;;6.93;100.00;99079.47;4824007;29;20046;-90
2022/04/21 03:15:06;;;;;;;37.15;23.17;;;;;;;6.85;100.00;99066.44;4821586;29;20038;-91
2022/04/21 03:17:32;;;;;;;38.78;23.58;;;;;;;7.32;100.00;99043.84;4822943;29;20436;-89
2022/04/21 03:19:57;;;;;;;45.50;24.30;;;;;;;7.60;100.00;99089.53;4836860;29;20042;-88
2022/04/21 03:25:10;;;;;;;39.40;23.23;;;;;;;7.33;100.00;99052.50;4848394;29;20033;-88
2022/04/21 03:27:36;;;;;;;40.60;23.65;;;;;;;7.35;100.00;99058.34;4835806;29;20034;-87
2022/04/21 03:30:08;;;;;;;41.03;24.23;;;;;;;7.54;100.00;99073.56;4826789;29;20045;-89
2022/04/21 03:32:34;;;;;;;40.65;24.25;;;;;;;7.34;100.00;99067.97;4822829;29;20071;-89
2022/04/21 03:35:01;;;;;;;38.72;25.42;;;;;;;7.35;100.00;99087.09;4822992;29;20110;-89
2022/04/21 03:37:28;;;;;;;45.10;26.73;;;;;;;7.27;100.00;99074.88;4823956;29;20057;-88
2022/04/21 03:39:54;;;;;;;38.92;25.30;;;;;;;7.48;100.00;99092.56;4823545;29;20073;-89
2022/04/21 03:42:26;;;;;;;40.78;24.38;;;;;;;7.49;100.00;99082.91;4821896;29;20054;-89
2022/04/21 03:44:53;;;;;;;44.83;26.08;;;;;;;7.38;100.00;99078.91;4822118;29;20050;-90
2022/04/21 03:47:23;;;;;;;44.95;26.52;;;;;;;6.74;100.00;98994.56;4823306;29;20039;-88
2022/04/21 03:49:49;;;;;;;48.03;26.23;;;;;;;7.42;100.00;99082.78;4839988;29;20038;-90
2022/04/21 03:52:15;;;;;;;44.72;27.52;;;;;;;7.28;100.00;99079.94;4825503;29;20106;-91
2022/04/21 03:54:41;;;;;;;47.33;27.80;;;;;;;7.02;100.00;99040.25;4825179;29;20104;-89
2022/04/21 03:57:07;;;;;;;49.50;28.83;;;;;;;7.32;100.00;99079.59;4827007;29;20030;-88
2022/04/21 03:59:34;;;;;;;45.85;26.42;;;;;;;7.28;100.00;99073.91;4836768;29;20493;-88
2022/04/21 04:02:03;;;;;;;46.45;27.15;;;;;;;6.83;100.00;99009.22;4821302;29;20030;-88
2022/04/21 04:04:36;;;;;;;46.00;27.70;;;;;;;6.80;100.00;99035.66;4820463;29;20045;-90
2022/04/21 04:12:32;;;;;;;50.72;28.90;;;;;;;7.08;100.00;99056.06;4839665;29;20101;-89
2022/04/21 04:14:59;;;;;;;46.17;30.55;;;;;;;7.00;100.00;99074.38;4819810;29;20508;-89
2022/04/21 04:17:24;;;;;;;45.55;28.63;;;;;;;7.21;100.00;99083.41;4826550;29;20042;-90
2022/04/21 04:19:50;;;;;;;51.03;29.85;;;;;;;7.05;100.00;99053.78;4826709;29;20046;-89
2022/04/21 04:22:16;;;;;;;46.03;29.02;;;;;;;6.92;100.00;99059.56;4826787;29;20101;-90
2022/04/21 04:24:45;;;;;;;49.35;30.67;;;;;;;7.07;100.00;99093.59;4824166;29;20141;-90
2022/04/21 04:27:10;;;;;;;47.22;30.70;;;;;;;6.76;100.00;99063.03;4825267;29;20049;-90
2022/04/21 04:29:37;;;;;;;51.25;29.85;;;;;;;6.85;100.00;99085.53;4839812;29;20046;-89
2022/04/21 04:32:03;;;;;;;49.55;30.13;;;;;;;6.70;100.00;99058.50;4837969;29;20030;-89
2022/04/21 04:34:29;;;;;;;57.55;31.50;;;;;;;6.59;100.00;99035.41;4824535;29;20113;-88
2022/04/21 04:36:55;;;;;;;48.67;31.00;;;;;;;6.62;100.00;99030.66;4842612;29;20041;-88
2022/04/21 04:39:21;;;;;;;47.20;30.60;;;;;;;6.79;100.00;99064.50;4824364;29;20034;-90
2022/04/21 04:44:31;;;;;;;50.35;29.80;;;;;;;6.92;100.00;99090.06;4834665;29;20034;-88
2022/04/21 04:46:58;;;;;;;52.70;31.52;;;;;;;6.75;100.00;99047.56;4839111;29;20044;-89
2022/04/21 04:49:24;;;;;;;52.95;30.83;;;;;;;6.97;100.00;99091.19;4825963;29;20078;-89
2022/04/21 04:51:50;;;;;;;49.85;29.58;;;;;;;6.53;100.00;99037.69;4824105;29;20070;-89
2022/04/21 04:54:16;;;;;;;53.97;32.45;;;;;;;6.74;100.00;99077.25;4822850;29;20046;-89
2022/04/21 04:56:44;;;;;;;57.28;31.00;;;;;;;6.79;100.00;99088.00;4819196;29;20233;-88
2022/04/21 04:59:11;;;;;;;49.10;30.33;;;;;;;6.88;100.00;99091.38;4824730;29;20478;-89
2022/04/21 05:01:41;;;;;;;48.90;30.92;;;;;;;6.54;100.00;99049.75;4838793;29;20042;-88
2022/04/21 05:04:11;;;;;;;49.40;30.95;;;;;;;6.93;100.00;99089.06;4819188;29;20042;-90
2022/04/21 05:06:48;;;;;;;46.60;29.60;;;;;;;6.80;100.00;99094.81;4818966;29;20049;-90
2022/04/21 05:09:17;;;;;;;51.63;30.02;;;;;;;6.82;100.00;99096.31;4820049;29;20141;-90
2022/04/21 05:11:46;;;;;;;47.75;29.10;;;;;;;6.38;100.00;99032.38;4835063;29;20038;-89
2022/04/21 05:14:13;;;;;;;56.28;30.70;;;;;;;6.72;100.00;99062.59;4838008;29;20042;-89
2022/04/21 05:16:42;;;;;;;46.70;29.60;;;;;;;6.56;100.00;99055.59;4838481;29;20046;-89
2022/04/21 05:19:09;;;;;;;50.17;29.27;;;;;;;6.49;100.00;99053.88;4822952;29;20070;-90
2022/04/21 05:21:36;;;;;;;51.38;29.40;;;;;;;6.55;100.00;99053.19;4824609;29;20105;-90
2022/04/21 05:24:04;;;;;;;45.80;29.00;;;;;;;6.69;100.00;99073.34;4825687;29;20058;-89
2022/04/21 05:26:32;;;;;;;47.90;28.88;;;;;;;6.72;100.00;99083.44;4824727;29;20049;-89
2022/04/21 05:29:00;;;;;;;40.45;27.20;;;;;;;7.07;100.00;99097.97;4825970;29;20079;-89
2022/04/21 05:31:26;;;;;;;47.88;28.40;;;;;;;6.80;100.00;99073.97;4825463;29;20405;-89
2022/04/21 05:33:53;;;;;;;43.13;27.98;;;;;;;6.97;100.00;99088.56;4843802;29;20032;-89
2022/04/21 05:36:20;;;;;;;43.97;26.70;;;;;;;7.07;100.00;99071.88;4839989;29;20068;-87
2022/04/21 05:38:47;;;;;;;46.50;27.20;;;;;;;6.95;100.00;99069.66;4818042;29;20030;-89
2022/04/21 05:41:18;;;;;;;41.30;27.00;;;;;;;6.97;100.00;99035.53;4821368;29;20027;-88
2022/04/21 05:43:46;;;;;;;41.78;26.65;;;;;;;6.97;100.00;99056.44;4814992;29;20124;-85
2022/04/21 05:46:13;;;;;;;42.13;26.67;;;;;;;7.13;100.00;99081.66;4833994;29;20043;-85
2022/04/21 05:48:40;;;;;;;39.80;26.65;;;;;;;7.32;100.00;99085.63;4812856;29;20386;-84
2022/04/21 05:51:09;;;;;;;44.17;28.00;;;;;;;7.36;100.00;99086.09;4827737;29;20397;-85
2022/04/21 05:53:37;;;;;;;42.08;28.52;;;;;;;7.38;100.00;99071.06;4815604;29;20041;-86
2022/04/21 05:56:07;;;;;;;45.55;28.75;;;;;;;7.61;100.00;99093.78;4816574;29;20422;-84
2022/04/21 05:58:37;;;;;;;48.33;28.85;;;;;;;7.42;100.00;99085.41;4831936;29;20042;-83
2022/04/21 06:01:08;;;;;;;46.22;25.17;;;;;;;7.25;100.00;99071.63;4828913;29;20041;-82
2022/04/21 06:03:34;;;;;;;36.40;22.58;;;;;;;7.42;100.00;99074.94;4809158;29;20117;-81
2022/04/21 06:06:00;;;;;;;37.80;23.85;;;;;;;7.72;100.00;99090.75;4811704;29;20042;-83
2022/04/21 06:08:26;;;;;;;35.80;24.17;;;;;;;7.91;100.00;99091.28;4825047;29;20037;-83
2022/04/21 06:10:52;;;;;;;35.17;22.60;;;;;;;7.83;100.00;99072.03;4811595;29;20042;-82
2022/04/21 06:13:18;;;;;;;33.30;21.90;;;;;;;7.97;100.00;99098.41;4812751;29;20049;-82
2022/04/21 06:15:44;;;;;;;35.13;21.75;;;;;;;7.79;100.00;99076.00;4824082;29;20038;-82
2022/04/21 06:18:09;;;;;;;30.75;19.30;;;;;;;7.96;100.00;99078.50;4826022;29;20065;-82
2022/04/21 06:20:35;;;;;;;30.63;20.27;;;;;;;7.68;100.00;99063.38;4838015;29;20041;-81
2022/04/21 06:23:01;;;;;;;33.75;19.00;;;;;;;7.95;100.00;99095.16;4812602;29;20180;-81
2022/04/21 06:25:27;;;;;;;32.38;18.80;;;;;;;7.90;100.00;99073.97;4825372;29;20034;-81
2022/04/21 06:27:53;;;;;;;30.60;17.83;;;;;;;8.13;100.00;99090.44;4826140;29;20553;-82
2022/04/21 06:30:19;;;;;;;30.52;18.67;;;;;;;8.09;100.00;99091.78;4825529;29;20052;-83
2022/04/21 06:32:46;;;;;;;32.72;18.60;;;;;;;8.01;100.00;99065.69;4808699;29;20090;-83
2022/04/21 06:35:12;;;;;;;28.42;17.55;;;;;;;7.85;100.00;99051.78;4836123;29;20489;-83
2022/04/21 06:37:39;;;;;;;25.83;17.13;;;;;;;8.05;100.00;99077.41;4824662;29;20034;-83
2022/04/21 06:40:05;;;;;;;25.92;16.98;;;;;;;8.11;100.00;99047.97;4825638;29;20034;-83
2022/04/21 06:42:31;;;;;;;28.67;17.45;;;;;;;8.38;100.00;99084.97;4827772;29;20080;-81
2022/04/21 06:50:25;;;;;;;27.48;15.57;;;;;;;8.56;100.00;99065.53;4835947;29;20031;-85
2022/04/21 06:53:15;;;;;;;23.35;15.52;;;;;;;8.68;100.00;99074.56;4825879;29;20038;-83
2022/04/21 06:55:41;;;;;;;21.80;15.48;;;;;;;8.50;100.00;99055.78;4831210;29;20029;-83
2022/04/21 06:58:06;;;;;;;24.77;14.48;;;;;;;8.50;100.00;99061.03;4811488;29;20073;-84
2022/04/21 07:00:32;;;;;;;25.25;15.43;;;;;;;8.69;100.00;99081.41;4811992;29;20517;-85
2022/04/21 07:02:58;;;;;;;29.73;17.30;;;;;;;8.82;100.00;99091.22;4833213;29;20042;-82
2022/04/21 07:05:26;;;;;;;24.27;15.00;;;;;;;8.64;100.00;99068.03;4821508;29;20108;-81
2022/04/21 07:07:52;;;;;;;22.33;15.13;;;;;;;9.06;100.00;99091.91;4829911;29;20450;-85
2022/04/21 07:10:19;;;;;;;26.73;15.27;;;;;;;8.91;100.00;99102.41;4811865;29;20041;-85
2022/04/21 07:12:46;;;;;;;25.88;16.08;;;;;;;8.84;100.00;99083.19;4810990;29;20494;-83
2022/04/21 07:15:12;;;;;;;24.27;16.05;;;;;;;9.18;100.00;99094.88;4831545;29;20041;-85
2022/04/21 07:17:39;;;;;;;24.17;15.98;;;;;;;9.42;100.00;99100.78;4810140;29;20690;-83
2022/04/21 07:20:09;;;;;;;20.60;15.70;;;;;;;9.43;100.00;99082.25;4825298;29;20041;-84
2022/04/21 07:22:35;;;;;;;22.75;14.07;;;;;;;9.48;100.00;99100.06;4829012;29;20050;-83
2022/04/21 07:25:04;;;;;;;21.98;13.60;;;;;;;9.38;100.00;99102.16;4846540;29;20033;-83
2022/04/21 07:27:30;;;;;;;21.35;12.93;;;;;;;9.52;100.00;99080.34;4841754;29;20033;-87
2022/04/21 07:29:56;;;;;;;19.48;12.93;;;;;;;9.18;100.00;99089.63;4865057;29;20048;-89
2022/04/21 07:32:22;;;;;;;19.40;12.68;;;;;;;9.43;100.00;99084.88;4854522;29;20471;-85
2022/04/21 07:34:47;;;;;;;20.95;12.95;;;;;;;9.54;100.00;99088.03;4849285;29;20068;-88
2022/04/21 07:37:13;;;;;;;18.10;12.55;;;;;;;9.92;100.00;99086.94;4864729;29;20041;-89
2022/04/21 07:39:40;;;;;;;18.83;12.05;;;;;;;10.17;100.00;99107.50;4849553;29;20477;-88
2022/04/21 07:42:07;;;;;;;20.73;10.98;;;;;;;9.77;100.00;99098.31;4865083;29;20029;-87
2022/04/21 07:44:36;;;;;;;17.40;10.60;;;;;;;10.23;100.00;99086.56;4849560;29;20033;-87
2022/04/21 07:47:03;;;;;;;19.63;10.93;;;;;;;10.29;100.00;99064.03;4865771;29;20122;-88
2022/04/21 07:49:48;;;;;;;16.63;10.82;;;;;;;10.58;100.00;99098.94;4850388;29;20484;-86
2022/04/21 07:55:10;;;;;;;16.20;11.10;;;;;;;10.26;100.00;99086.19;4862261;29;20442;-89
2022/04/21 07:57:35;;;;;;;16.10;10.98;;;;;;;10.42;100.00;99094.81;4845303;29;20178;-88
2022/04/21 08:00:04;;;;;;;16.40;11.00;;;;;;;10.53;100.00;99085.59;4832752;29;20053;-87
2022/04/21 08:02:30;;;;;;;17.05;10.57;;;;;;;10.52;100.00;99084.78;4832108;29;20030;-87
2022/04/21 08:04:56;;;;;;;16.98;10.68;;;;;;;10.45;100.00;99094.41;4861515;29;20060;-82
2022/04/21 08:07:21;;;;;;;13.32;8.90;;;;;;;10.66;100.00;99100.59;4862755;29;20033;-85
2022/04/21 08:09:47;;;;;;;12.13;9.05;;;;;;;10.78;100.00;99056.22;4866235;29;20492;-88
2022/04/21 08:12:13;;;;;;;16.75;9.55;;;;;;;11.11;100.00;99105.47;4849980;29;20114;-88
2022/04/21 08:14:39;;;;;;;11.35;8.85;;;;;;;11.20;100.00;99096.41;4849822;29;20094;-88
2022/04/21 08:17:06;;;;;;;11.18;9.00;;;;;;;11.37;100.00;99102.13;4833319;29;20476;-86
2022/04/21 08:19:32;;;;;;;19.67;9.40;;;;;;;11.22;100.00;99097.03;4838699;29;20124;-86
2022/04/21 08:21:58;;;;;;;11.20;8.30;;;;;;;11.24;100.00;99091.56;4834095;29;20043;-86
2022/04/21 08:32:41;;;;;;;14.70;9.02;;;;;;;10.99;100.00;99095.50;4864658;29;20034;-86
2022/04/21 08:35:07;;;;;;;17.85;8.80;;;;;;;11.31;100.00;99107.34;4829228;29;20037;-87
2022/04/21 08:37:35;;;;;;;13.88;9.57;;;;;;;11.41;100.00;99071.00;4848965;29;20109;-88
2022/04/21 08:40:06;;;;;;;14.85;9.75;;;;;;;11.57;100.00;99091.63;4824370;29;20460;-87
2022/04/21 08:42:37;;;;;;;14.18;10.00;;;;;;;11.48;100.00;99087.59;4852102;29;20033;-84
2022/04/21 08:45:03;;;;;;;14.70;9.07;;;;;;;11.64;100.00;99089.03;4833478;29;20065;-86
2022/04/21 08:47:29;;;;;;;15.20;9.40;;;;;;;11.09;100.00;99058.38;4863550;29;20040;-85
2022/04/21 08:50:14;;;;;;;13.60;9.50;;;;;;;11.57;100.00;99081.13;4832987;29;20485;-87
2022/04/21 08:52:41;;;;;;;14.68;9.25;;;;;;;11.66;100.00;99052.81;4833280;29;20037;-86
2022/04/21 08:55:08;;;;;;;11.93;9.05;;;;;;;11.45;100.00;99071.41;4862718;29;20033;-88
2022/04/21 08:57:37;;;;;;;15.35;9.60;;;;;;;11.66;100.00;99079.13;4857648;29;20040;-86
2022/04/21 09:00:05;;;;;;;12.02;8.77;;;;;;;11.85;100.00;99082.78;4845538;29;20504;-87
2022/04/21 09:02:39;;;;;;;15.13;8.90;;;;;;;12.06;100.00;99083.63;4844566;29;20400;-87
2022/04/21 09:05:06;;;;;;;11.25;9.32;;;;;;;11.85;100.00;99080.16;4847753;29;20029;-87
2022/04/21 09:07:42;;;;;;;12.63;8.77;;;;;;;11.78;100.00;99066.19;4848646;29;20074;-88
2022/04/21 09:10:12;;;;;;;13.32;9.02;;;;;;;11.89;100.00;99058.69;4847258;29;20060;-87
2022/04/21 09:12:46;;;;;;;11.13;8.50;;;;;;;11.77;99.11;99054.03;4864539;29;20067;-88
2022/04/21 09:15:17;;;;;;;14.52;9.52;;;;;;;11.97;99.95;99058.50;4848648;29;20037;-87
2022/04/21 09:17:51;;;;;;;15.15;9.75;;;;;;;12.09;99.40;99079.78;4864290;29;20034;-88
2022/04/21 09:20:18;;;;;;;12.55;10.10;;;;;;;12.19;99.37;99053.84;4848946;29;20033;-87
2022/04/21 09:23:06;;;;;;;14.77;9.85;;;;;;;12.47;99.67;99068.56;4833649;29;20047;-87
2022/04/21 09:25:44;;;;;;;15.90;10.68;;;;;;;12.36;99.50;99077.91;4833847;29;20025;-88
2022/04/21 09:28:22;;;;;;;13.73;10.32;;;;;;;12.26;100.00;99088.84;4832572;29;20120;-88
2022/04/21 09:30:52;;;;;;;12.98;9.70;;;;;;;12.05;100.00;99029.38;4853406;29;20033;-87
2022/04/21 09:33:32;;;;;;;16.25;10.55;;;;;;;12.96;100.00;99084.84;4855290;29;20033;-87
2022/04/21 09:35:59;;;;;;;14.18;10.15;;;;;;;12.54;100.00;99063.28;4853914;29;20078;-88
2022/04/21 09:38:25;;;;;;;13.93;9.27;;;;;;;12.59;100.00;99055.59;4838805;29;20539;-89
2022/04/21 09:40:51;;;;;;;16.50;10.90;;;;;;;12.11;100.00;99039.09;4854093;29;20077;-89
2022/04/21 09:43:29;;;;;;;16.98;10.73;;;;;;;12.78;100.00;99053.13;4838822;29;20038;-89
2022/04/21 09:46:11;;;;;;;19.63;10.43;;;;;;;13.09;100.00;99041.00;4853549;29;20033;-89
2022/04/21 09:48:37;;;;;;;17.08;11.00;;;;;;;12.89;99.86;99055.09;4853621;29;20041;-90
2022/04/21 09:51:08;;;;;;;17.40;10.00;;;;;;;12.73;100.00;99074.81;4854088;29;20033;-90
2022/04/21 09:53:56;;;;;;;14.10;9.85;;;;;;;13.13;100.00;99072.00;4868153;29;20041;-88
2022/04/21 09:56:42;;;;;;;19.30;10.35;;;;;;;13.20;100.00;99058.81;4822348;29;20566;-86
2022/04/21 09:59:10;;;;;;;13.82;9.70;;;;;;;13.65;99.52;99065.03;4852958;29;20044;-89
2022/04/21 10:01:39;;;;;;;14.88;10.65;;;;;;;13.83;98.99;99059.81;4865698;29;20526;-87
2022/04/21 10:04:17;;;;;;;16.27;10.35;;;;;;;13.52;99.10;99074.66;4849605;29;20042;-86
2022/04/21 10:06:44;;;;;;;13.68;10.80;;;;;;;13.51;98.61;99057.22;4847655;29;20457;-85
2022/04/21 10:09:11;;;;;;;15.95;10.10;;;;;;;13.76;99.19;99064.34;4848855;29;20426;-85
2022/04/21 10:11:38;;;;;;;15.85;11.88;;;;;;;13.67;97.77;99068.28;4863600;29;20025;-86
2022/04/21 10:14:07;;;;;;;13.98;10.55;;;;;;;13.50;98.00;99028.44;4865550;29;20025;-85
2022/04/21 10:16:34;;;;;;;17.20;11.45;;;;;;;13.27;97.70;99030.56;4863749;29;20097;-85
2022/04/21 10:19:01;;;;;;;16.63;11.10;;;;;;;13.44;98.85;99024.81;4848032;29;20033;-86
2022/04/21 10:21:34;;;;;;;13.10;11.20;;;;;;;13.63;98.36;99044.16;4832732;29;20037;-86
2022/04/21 10:24:00;;;;;;;18.43;11.17;;;;;;;13.70;97.03;99044.09;4843040;29;20833;-86
2022/04/21 10:26:43;;;;;;;15.80;11.52;;;;;;;13.89;96.26;99058.16;4810131;29;20027;-88
2022/04/21 10:29:15;;;;;;;16.20;12.27;;;;;;;13.63;96.55;99053.91;4826007;29;20030;-86
2022/04/21 10:31:55;;;;;;;15.95;11.95;;;;;;;14.20;96.09;99053.03;4813503;29;20079;-85
2022/04/21 10:34:40;;;;;;;15.15;11.95;;;;;;;14.51;94.66;99043.34;4813036;29;20045;-84
2022/04/21 10:37:13;;;;;;;17.15;12.23;;;;;;;14.49;94.46;99042.78;4811090;29;20069;-85
2022/04/21 10:39:40;;;;;;;10.48;8.95;;;;;;;14.76;93.28;99050.44;4834912;29;20050;-84
2022/04/21 10:42:26;;;;;;;20.42;12.52;;;;;;;14.94;92.39;99055.72;4827982;29;20030;-85
2022/04/21 10:44:53;;;;;;;18.75;12.90;;;;;;;14.81;91.37;99042.66;4827570;29;20057;-84
2022/04/21 10:47:38;;;;;;;18.73;12.63;;;;;;;14.71;92.16;99051.88;4826851;29;20163;-85
2022/04/21 10:50:20;;;;;;;19.85;14.23;;;;;;;15.35;91.67;99049.88;4827024;29;20032;-85
2022/04/21 10:58:47;;;;;;;18.90;15.10;;;;;;;15.12;93.33;99054.03;4823180;29;20041;-83
2022/04/21 11:01:18;;;;;;;24.63;16.67;;;;;;;14.89;91.34;99013.25;4818578;29;20466;-86
2022/04/21 11:04:04;;;;;;;21.65;17.00;;;;;;;15.24;91.33;99046.97;4821599;29;20473;-84
2022/04/21 11:06:51;;;;;;;23.50;17.70;;;;;;;14.90;91.50;99019.38;4805494;29;20103;-84
2022/04/21 11:09:35;;;;;;;23.05;16.90;;;;;;;15.27;91.49;99033.28;4825149;29;20404;-85
2022/04/21 11:12:01;;;;;;;27.38;18.67;;;;;;;15.37;90.27;99040.66;4812368;29;20489;-83
2022/04/21 11:14:32;;;;;;;22.15;17.50;;;;;;;14.80;91.10;99004.03;4811832;29;20030;-85
2022/04/21 11:17:02;;;;;;;25.08;18.98;;;;;;;14.70;91.57;99021.19;4830211;29;20045;-85
2022/04/21 11:19:28;;;;;;;24.60;18.95;;;;;;;15.09;93.54;99039.44;4828416;29;20034;-85
2022/04/21 11:21:55;;;;;;;26.58;19.60;;;;;;;15.52;92.61;99037.59;4834416;29;20081;-85
2022/04/21 11:24:21;;;;;;;27.15;18.77;;;;;;;15.51;92.54;98987.56;4837647;29;20062;-85
2022/04/21 11:26:57;;;;;;;24.90;19.67;;;;;;;15.50;89.97;98999.19;4810613;29;20042;-84
2022/04/21 11:29:23;;;;;;;25.48;19.85;;;;;;;15.69;90.52;98998.06;4809908;29;20045;-85
2022/04/21 11:31:55;;;;;;;23.15;19.73;;;;;;;15.76;90.12;99027.06;4812249;29;20410;-84
2022/04/21 11:34:25;;;;;;;27.48;20.50;;;;;;;15.82;89.65;99018.19;4824109;29;20041;-84
2022/04/21 11:36:56;;;;;;;22.98;20.35;;;;;;;15.73;89.82;99009.00;4825633;29;20040;-84
2022/04/21 11:39:22;;;;;;;24.58;20.65;;;;;;;15.63;89.28;99014.03;4828823;29;20117;-85
2022/04/21 11:41:52;;;;;;;32.15;22.23;;;;;;;15.74;89.09;99007.97;4825565;29;20915;-84
2022/04/21 11:44:22;;;;;;;30.65;23.40;;;;;;;15.21;89.86;99007.75;4836543;29;20036;-84
2022/04/21 11:46:48;;;;;;;35.60;23.35;;;;;;;15.50;88.61;99013.22;4833749;29;20065;-83
2022/04/21 11:49:14;;;;;;;24.25;20.23;;;;;;;15.80;88.37;98991.16;4826727;29;20481;-82
2022/04/21 11:51:41;;;;;;;28.00;21.63;;;;;;;16.39;86.92;99013.34;4808299;29;20041;-82
2022/04/21 11:54:10;;;;;;;35.40;23.77;;;;;;;16.42;87.51;99008.41;4827098;29;20086;-85
2022/04/21 11:56:36;;;;;;;26.15;21.48;;;;;;;16.39;84.87;98995.63;4810072;29;20030;-86
2022/04/21 11:59:07;;;;;;;30.90;22.40;;;;;;;16.80;85.42;99013.38;4839131;29;20030;-85
2022/04/21 12:07:03;;;;;;;28.63;23.05;;;;;;;17.42;83.62;98980.00;4833570;29;20437;-85
2022/04/21 12:09:34;;;;;;;26.77;22.35;;;;;;;17.90;81.61;98995.59;4836678;29;20504;-86
2022/04/21 12:12:05;;;;;;;25.85;21.20;;;;;;;18.48;81.14;99003.28;4811529;29;20046;-82
2022/04/21 12:14:31;;;;;;;28.17;22.95;;;;;;;17.28;79.82;99006.81;4810252;29;20113;-83
2022/04/21 12:16:58;;;;;;;29.75;22.15;;;;;;;17.73;80.52;99004.38;4836889;29;20033;-84
2022/04/21 12:19:29;;;;;;;28.13;21.90;;;;;;;17.96;80.45;99013.19;4827145;29;20137;-84